createdAt,value
2018-11-25T00:01:52.268Z,82.13
2018-11-25T00:04:55.307Z,80.00
2018-11-25T00:07:58.731Z,81.17
2018-11-25T00:11:01.789Z,80.50
2018-11-25T00:14:05.012Z,81.23
2018-11-25T00:17:08.072Z,82.67
2018-11-25T00:20:12.740Z,80.17
2018-11-25T00:23:15.936Z,84.47
2018-11-25T00:26:18.987Z,83.23
2018-11-25T00:29:22.012Z,80.90
2018-11-25T00:32:25.071Z,80.53
2018-11-25T00:35:28.107Z,79.83
2018-11-25T00:38:31.160Z,78.33
2018-11-25T00:41:34.184Z,77.40
2018-11-25T00:44:37.260Z,77.30
2018-11-25T00:47:40.330Z,80.83
2018-11-25T00:50:43.457Z,79.87
2018-11-25T00:53:46.516Z,79.10
2018-11-25T00:56:49.548Z,73.67
2018-11-25T00:59:52.595Z,77.07
2018-11-25T01:02:55.635Z,72.67
2018-11-25T01:05:58.689Z,72.10
2018-11-25T01:09:01.806Z,72.70
2018-11-25T01:12:05.180Z,75.27
2018-11-25T01:15:10.415Z,72.87
2018-11-25T01:18:13.403Z,76.43
2018-11-25T01:21:16.400Z,76.00
2018-11-25T01:24:19.495Z,76.87
2018-11-25T01:27:22.480Z,75.73
2018-11-25T01:30:26.023Z,71.47
2018-11-25T01:33:29.076Z,76.17
2018-11-25T01:36:32.507Z,73.60
2018-11-25T01:39:35.567Z,73.93
2018-11-25T01:42:38.900Z,75.93
2018-11-25T01:45:41.956Z,73.03
2018-11-25T01:48:44.984Z,72.37
2018-11-25T01:51:48.144Z,73.47
2018-11-25T01:54:51.137Z,70.47
2018-11-25T01:57:54.156Z,71.57
2018-11-25T02:00:57.216Z,69.37
2018-11-25T02:04:00.208Z,71.47
2018-11-25T02:07:03.503Z,76.60
2018-11-25T02:10:10.282Z,70.77
2018-11-25T02:13:13.411Z,69.47
2018-11-25T02:16:16.467Z,71.97
2018-11-25T02:19:19.542Z,69.47
2018-11-25T02:22:22.556Z,69.43
2018-11-25T02:25:25.539Z,73.47
2018-11-25T02:28:28.639Z,71.47
2018-11-25T02:31:31.624Z,76.37
2018-11-25T02:34:34.615Z,75.17
2018-11-25T02:37:37.624Z,73.20
2018-11-25T02:40:40.831Z,75.40
2018-11-25T02:43:43.900Z,75.10
2018-11-25T02:46:46.883Z,70.73
2018-11-25T02:49:49.877Z,67.07
2018-11-25T02:52:53.510Z,70.20
2018-11-25T02:55:56.783Z,69.10
2018-11-25T02:59:00.789Z,67.07
2018-11-25T03:02:03.983Z,67.63
2018-11-25T03:05:07.076Z,69.30
2018-11-25T03:08:10.108Z,67.70
2018-11-25T03:11:13.155Z,71.50
2018-11-25T03:14:16.147Z,68.20
2018-11-25T03:17:19.244Z,68.57
2018-11-25T03:20:22.232Z,68.87
2018-11-25T03:23:25.220Z,66.27
2018-11-25T03:26:28.419Z,68.67
2018-11-25T03:29:31.408Z,69.40
2018-11-25T03:32:34.400Z,67.17
2018-11-25T03:35:37.547Z,69.63
2018-11-25T03:38:40.584Z,69.30
2018-11-25T03:41:43.576Z,69.30
2018-11-25T03:44:46.668Z,65.83
2018-11-25T03:47:49.657Z,65.80
2018-11-25T03:50:52.643Z,70.40
2018-11-25T03:53:55.637Z,66.57
2018-11-25T03:56:58.623Z,65.20
2018-11-25T04:00:01.622Z,66.63
2018-11-25T04:03:04.607Z,65.80
2018-11-25T04:06:07.596Z,63.93
2018-11-25T04:09:10.591Z,65.87
2018-11-25T04:12:13.579Z,67.70
2018-11-25T04:15:17.511Z,68.00
2018-11-25T04:18:20.579Z,69.23
2018-11-25T04:21:23.575Z,67.60
2018-11-25T04:24:26.568Z,69.17
2018-11-25T04:27:29.888Z,68.17
2018-11-25T04:30:32.644Z,71.73
2018-11-25T04:33:35.656Z,66.83
2018-11-25T04:36:38.748Z,68.67
2018-11-25T04:39:41.740Z,66.40
2018-11-25T04:42:44.827Z,64.87
2018-11-25T04:45:47.825Z,64.00
2018-11-25T04:48:50.814Z,66.33
2018-11-25T04:51:53.799Z,66.47
2018-11-25T04:54:56.798Z,66.93
2018-11-25T04:57:59.780Z,65.13
2018-11-25T05:01:02.753Z,64.50
2018-11-25T05:04:05.896Z,62.20
2018-11-25T05:07:08.960Z,66.87
2018-11-25T05:10:14.712Z,68.30
2018-11-25T05:13:17.679Z,67.57
2018-11-25T05:16:20.723Z,67.57
2018-11-25T05:19:23.781Z,66.63
2018-11-25T05:22:26.843Z,68.27
2018-11-25T05:25:29.865Z,65.77
2018-11-25T05:28:32.884Z,63.10
2018-11-25T05:31:36.056Z,64.67
2018-11-25T05:34:40.001Z,61.37
2018-11-25T05:37:43.051Z,63.97
2018-11-25T05:40:46.032Z,59.13
2018-11-25T05:43:49.068Z,61.03
2018-11-25T05:46:52.147Z,61.70
2018-11-25T05:49:55.235Z,60.87
2018-11-25T05:52:58.210Z,57.93
2018-11-25T05:56:01.233Z,59.27
2018-11-25T05:59:04.606Z,59.63
2018-11-25T06:02:07.633Z,57.70
2018-11-25T06:05:10.687Z,59.20
2018-11-25T06:08:13.696Z,56.30
2018-11-25T06:11:16.908Z,57.10
2018-11-25T06:14:19.960Z,60.40
2018-11-25T06:17:22.996Z,58.43
2018-11-25T06:20:26.052Z,58.67
2018-11-25T06:23:29.072Z,56.77
2018-11-25T06:26:32.128Z,56.80
2018-11-25T06:29:35.156Z,55.07
2018-11-25T06:32:38.416Z,57.53
2018-11-25T06:35:41.647Z,57.63
2018-11-25T06:38:44.703Z,52.83
2018-11-25T06:41:47.732Z,57.80
2018-11-25T06:44:50.783Z,56.83
2018-11-25T06:47:54.741Z,58.80
2018-11-25T06:50:57.796Z,58.63
2018-11-25T06:54:00.828Z,58.47
2018-11-25T06:57:03.872Z,56.57
2018-11-25T07:00:14.815Z,57.07
2018-11-25T07:03:17.841Z,56.30
2018-11-25T07:06:20.869Z,54.87
2018-11-25T07:09:23.924Z,57.13
2018-11-25T07:12:26.951Z,57.00
2018-11-25T07:15:30.013Z,56.33
2018-11-25T07:18:33.032Z,56.33
2018-11-25T07:21:36.089Z,59.40
2018-11-25T07:24:39.812Z,61.50
2018-11-25T07:27:42.785Z,67.70
2018-11-25T07:30:45.813Z,62.67
2018-11-25T07:33:48.868Z,79.30
2018-11-25T07:36:51.944Z,59.73
2018-11-25T07:39:55.056Z,59.67
2018-11-25T07:42:58.081Z,60.13
2018-11-25T07:46:02.426Z,65.30
2018-11-25T07:49:04.368Z,62.30
2018-11-25T07:52:07.431Z,59.00
2018-11-25T07:55:11.762Z,59.63
2018-11-25T07:58:14.873Z,57.47
2018-11-25T08:01:17.935Z,60.90
2018-11-25T08:04:20.957Z,59.40
2018-11-25T08:07:24.021Z,56.53
2018-11-25T08:10:27.014Z,57.17
2018-11-25T08:13:30.033Z,60.33
2018-11-25T08:16:33.094Z,57.50
2018-11-25T08:19:36.424Z,57.87
2018-11-25T08:22:39.589Z,62.00
2018-11-25T08:25:42.703Z,59.77
2018-11-25T08:28:45.772Z,61.83
2018-11-25T08:31:48.793Z,60.23
2018-11-25T08:34:51.857Z,59.87
2018-11-25T08:37:54.949Z,60.67
2018-11-25T08:40:58.153Z,62.57
2018-11-25T08:44:01.235Z,65.70
2018-11-25T08:47:04.360Z,60.67
2018-11-25T08:50:10.123Z,62.30
2018-11-25T08:53:13.204Z,62.17
2018-11-25T08:56:16.264Z,66.43
2018-11-25T08:59:19.283Z,65.30
2018-11-25T09:02:22.324Z,62.50
2018-11-25T09:05:25.340Z,64.63
2018-11-25T09:08:28.359Z,67.07
2018-11-25T09:11:31.419Z,64.70
2018-11-25T09:14:34.449Z,66.60
2018-11-25T09:17:37.504Z,70.27
2018-11-25T09:20:40.591Z,67.50
2018-11-25T09:23:43.615Z,66.67
2018-11-25T09:26:46.672Z,64.80
2018-11-25T09:29:49.669Z,68.07
2018-11-25T09:32:52.657Z,67.47
2018-11-25T09:35:55.648Z,66.67
2018-11-25T09:38:58.673Z,64.87
2018-11-25T09:42:01.736Z,65.63
2018-11-25T09:45:07.100Z,62.37
2018-11-25T09:48:10.144Z,61.33
2018-11-25T09:51:13.192Z,60.93
2018-11-25T09:54:16.283Z,59.43
2018-11-25T09:57:19.344Z,61.00
2018-11-25T10:00:26.487Z,59.50
2018-11-25T10:03:29.524Z,58.20
2018-11-25T10:06:32.548Z,57.10
2018-11-25T10:09:35.811Z,54.00
2018-11-25T10:12:38.805Z,54.03
2018-11-25T10:15:41.824Z,54.73
2018-11-25T10:18:44.885Z,55.03
2018-11-25T10:21:47.903Z,57.87
2018-11-25T10:24:50.972Z,57.00
2018-11-25T10:27:54.053Z,54.80
2018-11-25T10:30:57.090Z,54.87
2018-11-25T10:34:00.160Z,53.67
2018-11-25T10:37:03.251Z,53.07
2018-11-25T10:40:22.936Z,51.70
2018-11-25T10:43:25.927Z,53.97
2018-11-25T10:46:29.018Z,54.30
2018-11-25T10:49:32.005Z,56.30
2018-11-25T10:52:34.996Z,53.53
2018-11-25T10:55:38.001Z,53.83
2018-11-25T10:58:41.108Z,54.57
2018-11-25T11:01:53.095Z,55.63
2018-11-25T11:05:01.640Z,61.67
2018-11-25T11:08:05.444Z,56.47
2018-11-25T11:11:08.604Z,57.67
2018-11-25T11:14:11.630Z,58.30
2018-11-25T11:17:14.687Z,58.00
2018-11-25T11:20:17.675Z,56.43
2018-11-25T11:23:20.803Z,52.60
2018-11-25T11:26:26.319Z,56.50
2018-11-25T11:29:29.480Z,57.13
2018-11-25T11:32:32.512Z,56.00
2018-11-25T11:35:35.635Z,58.03
2018-11-25T11:38:38.691Z,56.80
2018-11-25T11:41:41.712Z,55.53
2018-11-25T11:44:44.772Z,55.03
2018-11-25T11:47:47.763Z,55.47
2018-11-25T11:50:50.758Z,54.20
2018-11-25T11:53:53.747Z,52.33
2018-11-25T11:56:56.736Z,53.20
2018-11-25T11:59:59.724Z,56.80
2018-11-25T12:03:02.719Z,55.60
2018-11-25T12:06:05.791Z,54.70
2018-11-25T12:09:10.028Z,55.13
2018-11-25T12:12:13.015Z,56.53
2018-11-25T12:15:17.648Z,57.90
2018-11-25T12:18:20.635Z,55.30
2018-11-25T12:21:23.628Z,56.07
2018-11-25T12:24:26.722Z,57.17
2018-11-25T12:27:29.739Z,56.67
2018-11-25T12:30:32.804Z,59.40
2018-11-25T12:33:36.000Z,56.93
2018-11-25T12:36:39.839Z,57.77
2018-11-25T12:39:42.904Z,58.70
2018-11-25T12:42:48.001Z,54.40
2018-11-25T12:45:51.037Z,58.20
2018-11-25T12:48:54.020Z,59.27
2018-11-25T12:51:57.020Z,51.77
2018-11-25T12:55:00.924Z,52.10
2018-11-25T12:58:04.048Z,53.53
2018-11-25T13:01:07.107Z,54.73
2018-11-25T13:04:10.103Z,51.33
2018-11-25T13:07:13.064Z,50.47
2018-11-25T13:10:16.082Z,50.77
2018-11-25T13:13:19.071Z,51.30
2018-11-25T13:16:22.068Z,51.67
2018-11-25T13:19:25.053Z,53.07
2018-11-25T13:22:28.040Z,51.40
2018-11-25T13:25:31.136Z,50.43
2018-11-25T13:28:34.331Z,50.30
2018-11-25T13:31:37.320Z,48.77
2018-11-25T13:34:40.407Z,49.70
2018-11-25T13:37:43.403Z,49.10
2018-11-25T13:40:46.492Z,52.00
2018-11-25T13:43:49.484Z,50.07
2018-11-25T13:46:52.475Z,51.63
2018-11-25T13:49:55.464Z,51.80
2018-11-25T13:52:58.452Z,51.10
2018-11-25T13:56:01.552Z,48.83
2018-11-25T13:59:04.845Z,53.83
2018-11-25T14:02:07.812Z,54.23
2018-11-25T14:05:10.824Z,52.37
2018-11-25T14:08:14.475Z,53.33
2018-11-25T14:11:17.523Z,49.90
2018-11-25T14:14:20.511Z,50.57
2018-11-25T14:17:23.503Z,51.53
2018-11-25T14:20:26.597Z,52.30
2018-11-25T14:23:29.583Z,46.73
2018-11-25T14:26:36.868Z,46.00
2018-11-25T14:29:39.974Z,44.97
2018-11-25T14:32:42.960Z,46.63
2018-11-25T14:35:46.004Z,44.20
2018-11-25T14:38:49.043Z,45.33
2018-11-25T14:41:52.033Z,45.37
2018-11-25T14:44:55.024Z,46.80
2018-11-25T14:47:58.015Z,45.23
2018-11-25T14:51:01.007Z,45.80
2018-11-25T14:54:04.100Z,45.43
2018-11-25T14:57:07.091Z,46.93
2018-11-25T15:00:16.228Z,48.33
2018-11-25T15:03:19.216Z,46.67
2018-11-25T15:06:28.917Z,45.90
2018-11-25T15:09:25.296Z,46.03
2018-11-25T15:12:28.344Z,44.90
2018-11-25T15:15:31.379Z,46.20
2018-11-25T15:18:34.368Z,45.77
2018-11-25T15:21:37.462Z,45.23
2018-11-25T15:24:40.552Z,46.83
2018-11-25T15:27:43.546Z,46.57
2018-11-25T15:30:46.667Z,47.50
2018-11-25T15:33:49.730Z,49.63
2018-11-25T15:36:52.719Z,48.03
2018-11-25T15:39:55.708Z,50.40
2018-11-25T15:42:58.951Z,51.13
2018-11-25T15:46:02.100Z,50.23
2018-11-25T15:49:05.123Z,51.50
2018-11-25T15:52:08.184Z,52.77
2018-11-25T15:55:12.830Z,52.93
2018-11-25T15:58:15.914Z,52.53
2018-11-25T16:01:19.048Z,52.63
2018-11-25T16:04:22.196Z,56.00
2018-11-25T16:07:25.236Z,55.17
2018-11-25T16:10:28.276Z,55.93
2018-11-25T16:13:31.399Z,57.13
2018-11-25T16:16:34.508Z,55.20
2018-11-25T16:19:37.575Z,57.97
2018-11-25T16:22:40.784Z,54.30
2018-11-25T16:25:47.428Z,56.30
2018-11-25T16:28:52.625Z,53.90
2018-11-25T16:31:55.428Z,55.57
2018-11-25T16:34:58.752Z,53.97
2018-11-25T16:38:01.867Z,56.90
2018-11-25T16:41:05.601Z,56.17
2018-11-25T16:44:08.656Z,54.33
2018-11-25T16:47:11.731Z,56.20
2018-11-25T16:50:24.525Z,59.10
2018-11-25T16:53:19.719Z,55.97
2018-11-25T16:56:22.768Z,53.83
2018-11-25T16:59:25.792Z,55.20
2018-11-25T17:02:28.856Z,54.40
2018-11-25T17:05:34.504Z,53.80
2018-11-25T17:08:39.419Z,56.80
2018-11-25T17:11:42.472Z,50.10
2018-11-25T17:14:45.628Z,49.73
2018-11-25T17:17:48.648Z,52.03
2018-11-25T17:20:51.714Z,47.10
2018-11-25T17:23:54.704Z,53.43
2018-11-25T17:26:57.728Z,50.80
2018-11-25T17:30:00.783Z,50.90
2018-11-25T17:33:03.914Z,49.47
2018-11-25T17:36:06.968Z,49.47
2018-11-25T17:39:10.093Z,48.97
2018-11-25T17:42:13.155Z,46.33
2018-11-25T17:45:16.181Z,44.10
2018-11-25T17:48:19.236Z,42.93
2018-11-25T17:51:22.235Z,43.70
2018-11-25T17:54:25.226Z,40.37
2018-11-25T17:57:28.209Z,40.77
2018-11-25T18:00:43.719Z,39.27
2018-11-25T18:03:46.783Z,37.17
2018-11-25T18:06:50.632Z,36.37
2018-11-25T18:09:53.688Z,37.07
2018-11-25T18:12:58.499Z,38.60
2018-11-25T18:16:04.643Z,37.60
2018-11-25T18:19:25.195Z,37.07
2018-11-25T18:22:29.831Z,40.03
2018-11-25T18:25:32.903Z,41.20
2018-11-25T18:28:35.930Z,43.17
2018-11-25T18:31:39.039Z,43.63
2018-11-25T18:34:42.083Z,45.47
2018-11-25T18:37:45.216Z,40.53
2018-11-25T18:40:48.267Z,42.63
2018-11-25T18:43:51.256Z,37.50
2018-11-25T18:46:54.692Z,41.33
2018-11-25T18:49:57.851Z,41.77
2018-11-25T18:53:00.876Z,43.03
2018-11-25T18:56:03.943Z,42.07
2018-11-25T18:59:06.932Z,42.47
2018-11-25T19:02:41.284Z,40.73
2018-11-25T19:05:44.347Z,43.57
2018-11-25T19:08:47.573Z,42.00
2018-11-25T19:11:50.633Z,38.97
2018-11-25T19:14:53.755Z,40.23
2018-11-25T19:17:56.816Z,40.40
2018-11-25T19:21:00.149Z,38.60
2018-11-25T19:24:03.208Z,40.67
2018-11-25T19:27:06.512Z,36.40
2018-11-25T19:30:12.260Z,40.07
2018-11-25T19:33:15.320Z,40.73
2018-11-25T19:36:18.340Z,37.67
2018-11-25T19:39:21.449Z,40.93
2018-11-25T19:42:24.527Z,38.50
2018-11-25T19:45:28.061Z,38.40
2018-11-25T19:48:31.119Z,39.07
2018-11-25T19:51:34.116Z,38.07
2018-11-25T19:54:37.243Z,38.80
2018-11-25T19:57:40.399Z,38.73
2018-11-25T20:00:43.519Z,41.80
2018-11-25T20:03:46.571Z,41.10
2018-11-25T20:06:51.051Z,40.97
2018-11-25T20:09:54.100Z,42.43
2018-11-25T20:12:58.255Z,41.23
2018-11-25T20:16:06.648Z,41.33
2018-11-25T20:19:09.979Z,42.23
2018-11-25T20:22:18.548Z,43.17
2018-11-25T20:25:21.683Z,40.33
2018-11-25T20:28:24.742Z,42.77
2018-11-25T20:31:27.732Z,43.40
2018-11-25T20:34:30.755Z,42.90
2018-11-25T20:37:34.016Z,43.83
2018-11-25T20:40:37.155Z,46.03
2018-11-25T20:43:40.307Z,42.73
2018-11-25T20:46:48.873Z,42.53
2018-11-25T20:49:51.926Z,44.87
2018-11-25T20:53:00.615Z,42.37
2018-11-25T20:56:03.848Z,42.67
2018-11-25T20:59:06.936Z,39.93
2018-11-25T21:02:10.373Z,43.67
2018-11-25T21:05:14.348Z,44.00
2018-11-25T21:08:17.480Z,42.97
2018-11-25T21:11:20.536Z,43.67
2018-11-25T21:14:23.553Z,43.43
2018-11-25T21:17:26.616Z,44.43
2018-11-25T21:20:29.711Z,43.53
2018-11-25T21:26:58.224Z,43.47
2018-11-25T21:30:01.208Z,45.70
2018-11-25T21:33:04.708Z,45.57
2018-11-25T21:36:07.803Z,47.97
2018-11-25T21:39:11.796Z,49.43
2018-11-25T21:42:14.844Z,47.97
2018-11-25T21:45:18.763Z,47.90
2018-11-25T21:48:22.333Z,49.47
2018-11-25T21:51:25.451Z,48.83
2018-11-25T21:54:28.594Z,48.07
2018-11-25T21:57:31.719Z,47.83
2018-11-25T22:00:34.796Z,49.57
2018-11-25T22:03:37.988Z,50.00
2018-11-25T22:06:41.088Z,52.77
2018-11-25T22:09:44.113Z,56.27
2018-11-25T22:12:47.580Z,53.60
2018-11-25T22:15:50.568Z,55.63
2018-11-25T22:18:53.696Z,54.07
2018-11-25T22:21:56.753Z,51.43
2018-11-25T22:24:59.780Z,51.50
2018-11-25T22:28:02.944Z,52.07
2018-11-25T22:31:07.235Z,52.53
2018-11-25T22:34:10.284Z,49.23
2018-11-25T22:37:13.480Z,49.70
2018-11-25T22:40:17.425Z,49.87
2018-11-25T22:43:20.488Z,48.73
2018-11-25T22:46:23.514Z,52.60
2018-11-25T22:49:26.565Z,48.40
2018-11-25T22:52:29.636Z,48.97
2018-11-25T22:55:32.650Z,49.20
2018-11-25T22:58:35.680Z,52.40
2018-11-25T23:01:39.207Z,51.87
2018-11-25T23:04:53.296Z,52.13
2018-11-25T23:07:56.283Z,52.40
2018-11-25T23:10:59.276Z,49.27
2018-11-25T23:14:02.389Z,50.13
2018-11-25T23:17:05.667Z,50.87
2018-11-25T23:20:08.756Z,49.33
2018-11-25T23:23:11.748Z,47.57
2018-11-25T23:26:14.743Z,50.53
2018-11-25T23:29:17.727Z,49.07
2018-11-25T23:32:20.796Z,54.67
2018-11-25T23:35:25.364Z,47.63
2018-11-25T23:38:28.439Z,50.80
2018-11-25T23:41:31.575Z,51.23
2018-11-25T23:44:34.729Z,50.57
2018-11-25T23:47:37.860Z,50.60
2018-11-25T23:50:40.927Z,51.03
2018-11-25T23:53:43.907Z,50.03
2018-11-25T23:56:47.100Z,52.70
2018-11-25T23:59:50.093Z,50.90
